Magazine, Arkansas
Current Conditions -  °F | °C
As of 1:53 PM on Monday 26 Jan 2015 (Local Time) from KFSM Reporting Station
Clear Clear  
Wind Chill: 57°   Ceiling: Unl
Heat Index: 57°   Visibility: 10mi
Dew Point: 33°   Wind: 9mph
Humidity: 40%   Direction: 270°W
Pressure: 30.03"   Gusts: NA
Location:  35.15°N, 93.81°W
Report Text: KFSM 261953Z 27008KT 10SM CLR 14/01 A3003 RMK AO2 SLP168 T01390006
Loading
Personal Weather Stations






























Interactive Weather Map New forecast layout! Learn more

10-Day Weather Forecast

Advertisements
Track Severe Weather on mobile